NOZ8640 ENBO-ENTC

Flight info

Callsign NOZ8640
Flight time 0h 43m
Altitude 31000
Route PENNO DCT ATWEG
Aircraft MD82/M-SDFGIRWY/C

Departure

Time 2026-04-21 17:15
Airport Bodø Airport (ENBO)

Arrival

Time 2026-04-21 17:58
Airport Tromsø Airport (ENTC)
Time Latitude Longitude Altitude Speed Heading
2026-04-21 17:04 67.27232 14.36944 47 ft 0 kts 299°
2026-04-21 17:07 67.27231 14.36947 47 ft 1 kts 300°
2026-04-21 17:07 67.27225 14.36981 48 ft 2 kts 290°
2026-04-21 17:07 67.27219 14.37016 48 ft 2 kts 293°
2026-04-21 17:08 67.27213 14.37052 48 ft 2 kts 294°
2026-04-21 17:08 67.27208 14.37084 49 ft 0 kts 293°
2026-04-21 17:08 67.27205 14.37110 49 ft 2 kts 268°
2026-04-21 17:08 67.27210 14.37143 49 ft 2 kts 220°
2026-04-21 17:09 67.27228 14.37156 48 ft 0 kts 168°
2026-04-21 17:09 67.27206 14.37164 49 ft 3 kts 167°
2026-04-21 17:09 67.27195 14.37170 49 ft 1 kts 168°
2026-04-21 17:10 67.27193 14.37172 49 ft 0 kts 168°
2026-04-21 17:11 67.27188 14.37174 49 ft 3 kts 168°
2026-04-21 17:12 67.27140 14.37198 51 ft 11 kts 165°
2026-04-21 17:12 67.27124 14.37445 54 ft 22 kts 74°
2026-04-21 17:12 67.27162 14.37961 56 ft 31 kts 88°
2026-04-21 17:12 67.27142 14.38331 56 ft 15 kts 154°
2026-04-21 17:13 67.27035 14.38433 56 ft 21 kts 167°
2026-04-21 17:13 67.26971 14.38639 53 ft 25 kts 82°
2026-04-21 17:13 67.27024 14.39286 56 ft 40 kts 75°
2026-04-21 17:13 67.27069 14.39795 60 ft 1 kts 59°
2026-04-21 17:14 67.27106 14.39766 60 ft 13 kts 334°
2026-04-21 17:14 67.27183 14.39655 60 ft 5 kts 292°
2026-04-21 17:14 67.27164 14.39445 59 ft 34 kts 254°
2026-04-21 17:14 67.27065 14.38306 57 ft 93 kts 257°
2026-04-21 17:15 67.26897 14.36225 95 ft 138 kts 254°
2026-04-21 17:15 67.26719 14.33922 790 ft 131 kts 257°
2026-04-21 17:15 67.26605 14.31558 1305 ft 140 kts 271°
2026-04-21 17:15 67.27025 14.29279 1877 ft 151 kts 314°
2026-04-21 17:16 67.27962 14.27913 2413 ft 162 kts 323°
2026-04-21 17:16 67.28979 14.26472 2950 ft 173 kts 324°
2026-04-21 17:16 67.30051 14.24972 3581 ft 182 kts 325°
2026-04-21 17:16 67.31178 14.23397 4228 ft 191 kts 326°
2026-04-21 17:17 67.32362 14.21754 4860 ft 202 kts 326°
2026-04-21 17:17 67.33630 14.20001 5497 ft 214 kts 327°
2026-04-21 17:17 67.34977 14.18144 6135 ft 227 kts 328°
2026-04-21 17:17 67.36400 14.16191 6769 ft 239 kts 328°
2026-04-21 17:18 67.37932 14.14310 7393 ft 257 kts 344°
2026-04-21 17:18 67.39632 14.14278 8847 ft 244 kts 360°
2026-04-21 17:18 67.41318 14.15663 9245 ft 279 kts 26°
2026-04-21 17:18 67.42685 14.19225 10265 ft 291 kts 50°
2026-04-21 17:19 67.43740 14.23814 10766 ft 309 kts 50°
2026-04-21 17:19 67.44930 14.28857 10823 ft 342 kts 51°
2026-04-21 17:19 67.46190 14.34163 11698 ft 346 kts 51°
2026-04-21 17:19 67.47469 14.39471 12460 ft 354 kts 50°
2026-04-21 17:20 67.48779 14.44859 13329 ft 356 kts 50°
2026-04-21 17:20 67.50107 14.50264 14179 ft 359 kts 49°
2026-04-21 17:20 67.51465 14.55754 15005 ft 361 kts 49°
2026-04-21 17:20 67.52821 14.61201 15768 ft 365 kts 49°
2026-04-21 17:21 67.54198 14.66713 16598 ft 366 kts 50°
2026-04-21 17:21 67.55595 14.72296 17320 ft 369 kts 50°
2026-04-21 17:21 67.56998 14.77869 18026 ft 371 kts 51°
2026-04-21 17:21 67.58437 14.83504 18676 ft 374 kts 49°
2026-04-21 17:22 67.59447 14.87110 19298 ft 370 kts 47°
2026-04-21 17:22 67.61482 14.94360 20071 ft 377 kts 49°
2026-04-21 17:22 67.63010 14.99853 20874 ft 375 kts 48°
2026-04-21 17:22 67.64539 15.05363 21369 ft 381 kts 49°
2026-04-21 17:23 67.66090 15.10982 22204 ft 378 kts 48°
2026-04-21 17:23 67.67622 15.16531 22647 ft 384 kts 49°
2026-04-21 17:23 67.69177 15.22175 23430 ft 382 kts 48°
2026-04-21 17:23 67.70745 15.27858 23930 ft 387 kts 49°
2026-04-21 17:24 67.72317 15.33592 24645 ft 386 kts 48°
2026-04-21 17:24 67.73882 15.39268 25189 ft 389 kts 48°
2026-04-21 17:24 67.75473 15.45046 25691 ft 394 kts 47°
2026-04-21 17:24 67.77084 15.50888 26363 ft 393 kts 47°
2026-04-21 17:25 67.78677 15.56654 26908 ft 395 kts 47°
2026-04-21 17:25 67.80289 15.62489 27389 ft 399 kts 47°
2026-04-21 17:25 67.81930 15.68414 28090 ft 396 kts 47°
2026-04-21 17:25 67.83554 15.74271 28315 ft 405 kts 46°
2026-04-21 17:26 67.85210 15.80251 29000 ft 402 kts 46°
2026-04-21 17:26 67.86864 15.86196 29590 ft 400 kts 46°
2026-04-21 17:26 67.88478 15.92013 30255 ft 397 kts 46°
2026-04-21 17:26 67.90112 15.97883 30764 ft 397 kts 45°
2026-04-21 17:27 67.91756 16.03728 31211 ft 387 kts 43°
2026-04-21 17:27 67.93536 16.08806 31160 ft 376 kts 36°
2026-04-21 17:27 67.97761 16.16624 31200 ft 369 kts 22°
2026-04-21 17:28 68.02297 16.23154 31194 ft 374 kts 24°
2026-04-21 17:28 68.06842 16.29869 31186 ft 371 kts 24°
2026-04-21 17:29 68.11347 16.36651 31184 ft 373 kts 24°
2026-04-21 17:29 68.15851 16.43448 31158 ft 373 kts 24°
2026-04-21 17:30 68.20358 16.50267 31138 ft 372 kts 24°
2026-04-21 17:30 68.24796 16.57010 31134 ft 369 kts 23°
2026-04-21 17:31 68.29295 16.63845 31153 ft 371 kts 23°
2026-04-21 17:31 68.33781 16.70661 31152 ft 370 kts 23°
2026-04-21 17:32 68.38235 16.77421 31158 ft 370 kts 23°
2026-04-21 17:32 68.42683 16.84163 31158 ft 371 kts 23°
2026-04-21 17:33 68.47199 16.91003 31168 ft 369 kts 23°
2026-04-21 17:33 68.51646 16.97751 31170 ft 367 kts 22°
2026-04-21 17:34 68.56087 17.04471 31156 ft 369 kts 22°
2026-04-21 17:34 68.60567 17.11258 31132 ft 366 kts 22°
2026-04-21 17:35 68.65006 17.17978 31128 ft 368 kts 21°
2026-04-21 17:35 68.69463 17.24722 31110 ft 365 kts 21°
2026-04-21 17:36 68.73898 17.31701 31116 ft 369 kts 22°
2026-04-21 17:36 68.78317 17.38744 31091 ft 366 kts 22°
2026-04-21 17:37 68.82676 17.45710 31078 ft 365 kts 22°
2026-04-21 17:37 68.87128 17.52838 31069 ft 377 kts 21°
2026-04-21 17:38 68.91773 17.60270 31055 ft 395 kts 22°
2026-04-21 17:38 68.96511 17.67886 31025 ft 393 kts 22°
2026-04-21 17:39 69.01223 17.75443 30999 ft 391 kts 22°
2026-04-21 17:39 69.06056 17.81657 31003 ft 380 kts 13°
2026-04-21 17:40 69.11036 17.85472 31008 ft 371 kts
2026-04-21 17:40 69.16135 17.87882 31034 ft 372 kts
2026-04-21 17:41 69.21210 17.90313 31036 ft 372 kts
2026-04-21 17:41 69.26286 17.92734 31036 ft 370 kts
2026-04-21 17:42 69.31319 17.95150 31018 ft 368 kts
2026-04-21 17:42 69.36344 17.97685 31023 ft 372 kts
2026-04-21 17:43 69.41315 18.02126 31015 ft 376 kts 14°
2026-04-21 17:43 69.46054 18.08507 31015 ft 379 kts 18°
2026-04-21 17:44 69.50771 18.15197 31002 ft 378 kts 17°
2026-04-21 17:44 69.55474 18.21895 31016 ft 379 kts 18°
2026-04-21 17:45 69.60181 18.28614 31008 ft 379 kts 18°
2026-04-21 17:45 69.64880 18.35335 30990 ft 379 kts 17°
2026-04-21 17:46 69.69574 18.42019 30976 ft 376 kts 18°
2026-04-21 17:46 69.74288 18.48713 30956 ft 379 kts 16°
2026-04-21 17:47 69.76617 18.52018 29722 ft 387 kts 17°
2026-04-21 17:47 69.79032 18.55504 28189 ft 391 kts 17°
2026-04-21 17:47 69.81428 18.59013 26800 ft 398 kts 17°
2026-04-21 17:47 69.83902 18.62621 25358 ft 406 kts 18°
2026-04-21 17:48 69.85542 18.65069 24449 ft 413 kts 18°
2026-04-21 17:48 69.88977 18.70161 22618 ft 422 kts 18°
2026-04-21 17:48 69.91486 18.73916 21275 ft 408 kts 18°
2026-04-21 17:48 69.93951 18.77605 19880 ft 397 kts 17°
2026-04-21 17:49 69.96345 18.81172 18492 ft 387 kts 17°
2026-04-21 17:49 69.98703 18.84656 17157 ft 380 kts 16°
2026-04-21 17:49 70.01013 18.87951 15843 ft 375 kts 16°
2026-04-21 17:49 70.03328 18.91235 14475 ft 374 kts 16°
2026-04-21 17:50 70.05621 18.94451 13100 ft 371 kts 17°
2026-04-21 17:50 70.07924 18.97623 11701 ft 370 kts 16°
2026-04-21 17:50 70.10196 19.00722 10314 ft 369 kts 17°
2026-04-21 17:50 70.12289 19.05173 8883 ft 388 kts 43°
2026-04-21 17:51 70.13615 19.11991 7531 ft 400 kts 68°
2026-04-21 17:51 70.13940 19.20048 6159 ft 405 kts 94°
2026-04-21 17:51 70.13180 19.27810 4788 ft 399 kts 121°
2026-04-21 17:51 70.11446 19.33459 4363 ft 351 kts 155°
2026-04-21 17:52 70.09363 19.35570 4765 ft 300 kts 186°
2026-04-21 17:52 70.07378 19.34410 5220 ft 294 kts 210°
2026-04-21 17:52 70.05460 19.32139 5680 ft 307 kts 210°
2026-04-21 17:52 70.03441 19.29695 5951 ft 324 kts 210°
2026-04-21 17:53 70.01351 19.27131 5919 ft 327 kts 210°
2026-04-21 17:53 69.99271 19.24594 5895 ft 322 kts 210°
2026-04-21 17:53 69.97248 19.22113 5917 ft 318 kts 210°
2026-04-21 17:53 69.95235 19.19652 5921 ft 317 kts 210°
2026-04-21 17:54 69.93199 19.17143 5933 ft 318 kts 210°
2026-04-21 17:54 69.91176 19.14656 5939 ft 314 kts 210°
2026-04-21 17:54 69.89233 19.12312 5987 ft 297 kts 210°
2026-04-21 17:54 69.87357 19.10104 5713 ft 291 kts 210°
2026-04-21 17:55 69.85509 19.07917 5126 ft 281 kts 210°
2026-04-21 17:55 69.83759 19.05846 4670 ft 270 kts 210°
2026-04-21 17:55 69.82056 19.03873 4221 ft 260 kts 210°
2026-04-21 17:55 69.80427 19.01998 3744 ft 252 kts 210°
2026-04-21 17:56 69.78806 19.00121 3086 ft 247 kts 211°
2026-04-21 17:56 69.77348 18.98272 2879 ft 216 kts 211°
2026-04-21 17:56 69.76004 18.97079 2896 ft 187 kts 200°
2026-04-21 17:56 69.74812 18.96269 2485 ft 173 kts 205°
2026-04-21 17:57 69.73656 18.95455 1859 ft 172 kts 202°
2026-04-21 17:57 69.72533 18.94697 1312 ft 164 kts 201°
2026-04-21 17:57 69.71435 18.93969 682 ft 164 kts 199°
2026-04-21 17:57 69.70366 18.93265 270 ft 148 kts 199°
2026-04-21 17:58 69.69425 18.92597 103 ft 141 kts 199°
2026-04-21 17:58 69.68474 18.91991 17 ft 136 kts 200°
2026-04-21 17:58 69.67641 18.91418 7 ft 105 kts 193°
2026-04-21 17:58 69.67303 18.91144 -7 ft 20 kts 209°
2026-04-21 17:59 69.67253 18.91186 -7 ft 10 kts 59°
2026-04-21 17:59 69.67395 18.91266 -4 ft 32 kts
2026-04-21 17:59 69.67603 18.91333 3 ft 17 kts 317°
2026-04-21 17:59 69.67640 18.91099 0 ft 4 kts 312°
2026-04-21 18:00 69.67701 18.91077 1 ft 23 kts
2026-04-21 18:00 69.67783 18.91038 1 ft 9 kts 295°
2026-04-21 18:00 69.67799 18.90852 -1 ft 2 kts 283°
2026-04-21 18:00 69.67801 18.90832 -2 ft 0 kts 283°
2026-04-21 18:01 69.67801 18.90831 -2 ft 0 kts 283°